Time;durP1;ratioP1;P1;durP2;ratioP2;P2;SDS_P1;SDS_P2;PMS_P1;PMS_P2;Temp;Humidity;BMP_temperature;BMP_pressure;BME280_temperature;BME280_humidity;BME280_pressure;Samples;Min_cycle;Max_cycle;Signal;HPM_P1;HPM_P2
2023/07/15 00:01:51;;;;;;;3.00;0.98;;;21.90;99.20;;;;;;5000425;28;20041;-72
2023/07/15 00:04:18;;;;;;;3.00;0.80;;;21.90;99.00;;;;;;5003891;28;20062;-71
2023/07/15 00:06:44;;;;;;;2.05;0.73;;;21.90;98.80;;;;;;5003439;28;20573;-71
2023/07/15 00:09:10;;;;;;;3.42;0.73;;;21.90;98.60;;;;;;4995609;28;20089;-71
2023/07/15 00:11:41;;;;;;;3.17;0.82;;;21.90;98.50;;;;;;4999380;28;20050;-71
2023/07/15 00:14:22;;;;;;;2.42;0.95;;;21.90;98.30;;;;;;5000679;28;20569;-71
2023/07/15 00:16:49;;;;;;;;;;;21.80;98.50;;;;;;5000799;28;20042;-71
2023/07/15 00:19:18;;;;;;;2.75;0.77;;;21.80;98.20;;;;;;4997188;28;19921;-71
2023/07/15 00:21:44;;;;;;;4.85;1.15;;;21.80;98.30;;;;;;5000888;28;20046;-71
2023/07/15 00:24:10;;;;;;;2.28;0.75;;;21.80;98.30;;;;;;4998329;28;20042;-71
2023/07/15 00:26:37;;;;;;;4.07;0.98;;;21.80;98.40;;;;;;5001074;28;20046;-71
2023/07/15 00:29:04;;;;;;;3.13;1.38;;;21.80;98.30;;;;;;4997634;28;20084;-71
2023/07/15 00:31:31;;;;;;;3.30;1.23;;;21.80;98.30;;;;;;4995065;28;20041;-71
2023/07/15 00:33:57;;;;;;;3.55;1.33;;;21.80;98.50;;;;;;5000615;28;20132;-71
2023/07/15 00:36:23;;;;;;;4.18;0.85;;;21.70;98.70;;;;;;4995244;28;20546;-71
2023/07/15 00:38:48;;;;;;;2.28;0.98;;;21.70;98.80;;;;;;4995398;28;20040;-71
2023/07/15 00:41:29;;;;;;;1.77;0.70;;;21.60;98.60;;;;;;4996334;28;20034;-71
2023/07/15 00:46:22;;;;;;;1.85;0.63;;;21.60;98.50;;;;;;4999797;28;19967;-71
2023/07/15 00:49:09;;;;;;;3.38;1.20;;;21.60;98.80;;;;;;4993303;28;20115;-71
2023/07/15 00:51:38;;;;;;;4.50;0.77;;;21.60;98.60;;;;;;4996625;28;20054;-70
2023/07/15 00:54:06;;;;;;;5.03;0.88;;;21.50;99.20;;;;;;4998589;28;20030;-71
2023/07/15 00:56:33;;;;;;;2.67;0.70;;;21.50;99.30;;;;;;5005626;28;20494;-70
2023/07/15 00:58:59;;;;;;;1.40;0.88;;;21.40;99.10;;;;;;5005310;28;20033;-71
2023/07/15 01:01:25;;;;;;;2.38;1.35;;;21.40;99.20;;;;;;5000737;28;20034;-69
2023/07/15 01:03:51;;;;;;;1.58;0.63;;;21.30;99.20;;;;;;5001135;28;20053;-70
2023/07/15 01:06:16;;;;;;;2.95;0.80;;;21.20;99.60;;;;;;4991555;28;20048;-70
2023/07/15 01:08:42;;;;;;;2.40;0.77;;;21.20;99.60;;;;;;5001164;28;20681;-70
2023/07/15 01:11:08;;;;;;;2.28;0.93;;;21.10;99.70;;;;;;5000117;28;20034;-70
2023/07/15 01:13:34;;;;;;;1.75;0.90;;;21.10;99.60;;;;;;5003002;28;20030;-71
2023/07/15 01:15:59;;;;;;;1.45;0.50;;;21.00;99.80;;;;;;4999933;28;20041;-72
2023/07/15 01:18:25;;;;;;;2.58;0.90;;;20.90;99.90;;;;;;4990268;28;20034;-71
2023/07/15 01:20:51;;;;;;;1.83;0.82;;;20.90;99.90;;;;;;4998649;28;20073;-70
2023/07/15 01:23:17;;;;;;;3.75;0.80;;;20.80;99.90;;;;;;4995807;28;20137;-71
2023/07/15 01:25:42;;;;;;;1.60;0.80;;;20.80;99.90;;;;;;4998285;28;20040;-71
2023/07/15 01:28:08;;;;;;;1.98;0.50;;;20.70;99.90;;;;;;4993549;28;20038;-71
2023/07/15 01:30:35;;;;;;;1.48;0.45;;;20.60;99.90;;;;;;4998015;28;20507;-71
2023/07/15 01:33:00;;;;;;;3.40;0.85;;;20.60;99.90;;;;;;4994311;28;20454;-71
2023/07/15 01:43:12;;;;;;;1.63;0.70;;;20.40;99.90;;;;;;5786124;23;20049;-73
2023/07/15 01:45:39;;;;;;;3.03;0.90;;;20.40;99.90;;;;;;4989550;28;20034;-72
2023/07/15 01:48:05;;;;;;;2.85;0.68;;;20.40;99.90;;;;;;4977556;28;20035;-72
2023/07/15 01:50:31;;;;;;;2.35;0.70;;;20.30;99.90;;;;;;4978390;28;20034;-71
2023/07/15 01:52:57;;;;;;;3.72;1.33;;;20.30;99.90;;;;;;4977032;28;20041;-72
2023/07/15 01:55:23;;;;;;;3.33;1.02;;;20.20;99.90;;;;;;4977472;28;20042;-71
2023/07/15 01:57:49;;;;;;;6.88;0.80;;;20.20;99.90;;;;;;4978782;28;20034;-72
2023/07/15 02:00:16;;;;;;;2.60;0.90;;;20.10;99.90;;;;;;4986127;28;20106;-72
2023/07/15 02:02:45;;;;;;;3.47;0.88;;;20.00;99.90;;;;;;4983136;28;20034;-72
2023/07/15 02:05:10;;;;;;;1.95;0.65;;;19.90;99.90;;;;;;4975417;28;20058;-72
2023/07/15 02:07:36;;;;;;;3.67;0.80;;;19.90;99.90;;;;;;4977476;28;20059;-71
2023/07/15 02:10:01;;;;;;;1.83;0.60;;;19.80;99.90;;;;;;4977316;28;20027;-71
2023/07/15 02:12:28;;;;;;;2.83;1.17;;;19.80;99.90;;;;;;4975944;28;20031;-72
2023/07/15 02:14:53;;;;;;;5.15;1.42;;;19.70;99.90;;;;;;4978105;28;20035;-74
2023/07/15 02:17:22;;;;;;;3.00;1.30;;;19.60;99.90;;;;;;4986391;28;20507;-72
2023/07/15 02:19:52;;;;;;;1.92;0.85;;;19.60;99.90;;;;;;4981659;28;20042;-71
2023/07/15 02:22:18;;;;;;;1.77;0.90;;;19.50;99.90;;;;;;4979203;28;20049;-72
2023/07/15 02:24:44;;;;;;;1.77;0.50;;;19.50;99.90;;;;;;4983360;28;20026;-72
2023/07/15 02:27:09;;;;;;;4.13;0.80;;;19.40;99.90;;;;;;4981753;28;20146;-73
2023/07/15 02:29:35;;;;;;;3.45;0.80;;;19.40;99.90;;;;;;4982142;28;20552;-72
2023/07/15 02:32:02;;;;;;;2.65;1.10;;;19.30;99.90;;;;;;4980452;28;20037;-72
2023/07/15 02:34:27;;;;;;;5.15;1.30;;;19.20;99.90;;;;;;4980808;28;20034;-72
2023/07/15 02:36:53;;;;;;;2.63;1.02;;;19.20;99.90;;;;;;4981636;28;20088;-71
2023/07/15 02:39:19;;;;;;;4.90;1.13;;;19.20;99.90;;;;;;4978219;28;20129;-71
2023/07/15 02:41:46;;;;;;;3.35;0.90;;;19.10;99.90;;;;;;4981474;28;20026;-72
2023/07/15 02:44:12;;;;;;;3.55;1.10;;;19.10;99.90;;;;;;4978415;28;20053;-73
2023/07/15 02:46:38;;;;;;;3.10;0.80;;;19.00;99.90;;;;;;4982225;28;20426;-72
2023/07/15 02:49:03;;;;;;;3.30;1.30;;;19.00;99.90;;;;;;4980017;28;20031;-72
2023/07/15 02:51:29;;;;;;;3.20;1.00;;;19.00;99.90;;;;;;4980828;28;20035;-71
2023/07/15 02:53:55;;;;;;;3.63;1.20;;;19.00;99.90;;;;;;4980864;28;20041;-72
2023/07/15 02:56:21;;;;;;;3.75;1.00;;;19.00;99.90;;;;;;4978677;28;20125;-72
2023/07/15 02:58:46;;;;;;;2.92;0.80;;;19.00;99.90;;;;;;4985122;28;20121;-72
2023/07/15 03:01:12;;;;;;;1.95;1.00;;;19.00;99.90;;;;;;4986869;28;20042;-72
2023/07/15 03:03:38;;;;;;;2.00;0.80;;;19.00;99.90;;;;;;4982297;28;20459;-71
2023/07/15 03:06:03;;;;;;;2.03;0.82;;;19.00;99.90;;;;;;4979494;28;20037;-72
2023/07/15 03:08:29;;;;;;;2.80;0.88;;;19.00;99.90;;;;;;4980767;28;20038;-71
2023/07/15 03:10:55;;;;;;;1.98;0.80;;;19.00;99.90;;;;;;4980595;28;20034;-72
2023/07/15 03:13:21;;;;;;;3.50;1.02;;;19.00;99.90;;;;;;4977863;28;20037;-72
2023/07/15 03:15:47;;;;;;;5.03;1.50;;;19.00;99.90;;;;;;4977970;28;20480;-72
2023/07/15 03:18:12;;;;;;;2.70;0.90;;;19.00;99.90;;;;;;4979878;28;20050;-72
2023/07/15 03:20:38;;;;;;;7.30;2.08;;;19.00;99.90;;;;;;4978919;28;20041;-71
2023/07/15 03:23:04;;;;;;;3.53;0.90;;;19.00;99.90;;;;;;4979618;28;20484;-72
2023/07/15 03:25:29;;;;;;;5.47;0.98;;;19.00;99.90;;;;;;4979347;28;20046;-72
2023/07/15 03:27:55;;;;;;;2.97;0.85;;;19.00;99.90;;;;;;4979726;28;20432;-72
2023/07/15 03:30:21;;;;;;;3.08;1.17;;;19.10;99.90;;;;;;4979688;28;20415;-71
2023/07/15 03:32:47;;;;;;;5.55;1.00;;;19.20;99.90;;;;;;4979066;28;20661;-73
2023/07/15 03:35:12;;;;;;;3.08;1.00;;;19.10;99.90;;;;;;4979665;28;20046;-71
2023/07/15 03:37:42;;;;;;;3.88;1.05;;;19.10;99.90;;;;;;4981848;28;20030;-72
2023/07/15 03:40:10;;;;;;;3.43;0.80;;;19.10;99.90;;;;;;4978314;28;20393;-72
2023/07/15 03:42:35;;;;;;;7.57;0.90;;;19.10;99.90;;;;;;4981158;28;20034;-73
2023/07/15 03:45:01;;;;;;;4.13;0.80;;;19.00;99.90;;;;;;4978802;28;20396;-72
2023/07/15 03:47:27;;;;;;;4.80;1.10;;;19.00;99.90;;;;;;4980095;28;20039;-71
2023/07/15 03:49:53;;;;;;;2.85;1.20;;;19.00;99.90;;;;;;4979844;28;20038;-75
2023/07/15 03:52:18;;;;;;;3.85;0.90;;;19.00;99.90;;;;;;4978759;28;20119;-72
2023/07/15 03:54:44;;;;;;;4.07;1.10;;;19.00;99.90;;;;;;4979691;28;20041;-72
2023/07/15 03:57:10;;;;;;;5.28;0.90;;;19.00;99.90;;;;;;4977038;28;20050;-73
2023/07/15 03:59:36;;;;;;;3.75;0.95;;;19.10;99.90;;;;;;4982238;28;20039;-72
2023/07/15 04:02:03;;;;;;;3.15;0.70;;;19.20;99.90;;;;;;4980505;28;20384;-72
2023/07/15 04:04:29;;;;;;;2.88;0.80;;;19.20;99.90;;;;;;4978591;28;20151;-72
2023/07/15 04:06:57;;;;;;;2.67;1.00;;;19.30;99.90;;;;;;4979340;28;20492;-71
2023/07/15 04:09:23;;;;;;;3.42;0.93;;;19.30;99.90;;;;;;4976993;28;20455;-72
2023/07/15 04:11:48;;;;;;;2.58;0.98;;;19.30;99.90;;;;;;4980304;28;20038;-73
2023/07/15 04:14:14;;;;;;;3.17;0.63;;;19.30;99.90;;;;;;4977576;28;20054;-71
2023/07/15 04:16:39;;;;;;;3.67;1.02;;;19.40;99.90;;;;;;4979995;28;20058;-72
2023/07/15 04:19:05;;;;;;;3.65;1.13;;;19.40;99.90;;;;;;4976775;28;20039;-74
2023/07/15 04:21:31;;;;;;;3.38;1.20;;;19.40;99.90;;;;;;4980422;28;20441;-72
2023/07/15 04:23:57;;;;;;;3.40;1.20;;;19.50;99.90;;;;;;4979075;28;20516;-71
2023/07/15 04:26:24;;;;;;;3.00;1.15;;;19.60;99.90;;;;;;4978496;28;20053;-71
2023/07/15 04:28:51;;;;;;;4.97;1.10;;;19.60;99.90;;;;;;4978931;28;20399;-72
2023/07/15 04:31:17;;;;;;;1.98;1.00;;;19.70;99.90;;;;;;4979206;28;20108;-71
2023/07/15 04:33:46;;;;;;;4.80;0.95;;;19.70;99.90;;;;;;4978135;28;20501;-73
2023/07/15 04:36:13;;;;;;;4.78;0.77;;;19.70;99.90;;;;;;4979570;28;20039;-72
2023/07/15 04:38:39;;;;;;;3.40;1.00;;;19.80;99.90;;;;;;4976190;28;20400;-71
2023/07/15 04:41:04;;;;;;;3.65;1.00;;;19.80;99.90;;;;;;4978746;28;20033;-72
2023/07/15 04:43:31;;;;;;;3.33;0.75;;;19.90;99.90;;;;;;4975623;28;20161;-72
2023/07/15 04:45:57;;;;;;;5.28;1.50;;;19.90;99.90;;;;;;4978770;28;20046;-72
2023/07/15 04:48:23;;;;;;;2.75;1.00;;;20.00;99.90;;;;;;4978240;28;20038;-71
2023/07/15 04:50:49;;;;;;;3.95;0.98;;;20.00;99.90;;;;;;4977670;28;20165;-72
2023/07/15 04:53:15;;;;;;;5.72;0.82;;;20.00;99.90;;;;;;4977554;28;20030;-73
2023/07/15 04:55:42;;;;;;;7.30;1.13;;;20.00;99.90;;;;;;4979727;28;20045;-73
2023/07/15 04:58:08;;;;;;;1.42;0.65;;;20.10;99.90;;;;;;4979062;28;20061;-72
2023/07/15 05:00:34;;;;;;;3.50;0.93;;;20.10;99.90;;;;;;4979828;28;20125;-71
2023/07/15 05:02:59;;;;;;;1.92;0.85;;;20.20;99.90;;;;;;4979700;28;20442;-71
2023/07/15 05:05:25;;;;;;;2.53;1.08;;;20.20;99.90;;;;;;4977465;28;20381;-72
2023/07/15 05:07:51;;;;;;;6.82;0.82;;;20.30;99.90;;;;;;4977575;28;20053;-72
2023/07/15 05:10:17;;;;;;;1.83;0.65;;;20.30;99.90;;;;;;4977751;28;20057;-72
2023/07/15 05:12:42;;;;;;;2.25;1.00;;;20.40;99.90;;;;;;4976579;28;20496;-72
2023/07/15 05:15:08;;;;;;;1.75;0.82;;;20.40;99.90;;;;;;4979167;28;20046;-72
2023/07/15 05:17:34;;;;;;;3.08;0.70;;;20.50;99.90;;;;;;4977140;28;20042;-71
2023/07/15 05:20:00;;;;;;;1.67;0.60;;;20.60;99.90;;;;;;4978241;28;20049;-73
2023/07/15 05:22:26;;;;;;;0.93;0.60;;;20.60;99.90;;;;;;4975862;28;20050;-71
2023/07/15 05:24:52;;;;;;;2.88;0.60;;;20.70;99.90;;;;;;4978749;28;20027;-72
2023/07/15 05:27:17;;;;;;;4.65;0.50;;;20.70;99.90;;;;;;4979324;28;20093;-71
2023/07/15 05:29:45;;;;;;;2.25;0.70;;;20.70;99.90;;;;;;4978052;28;20046;-71
2023/07/15 05:32:10;;;;;;;1.17;0.50;;;20.70;99.90;;;;;;4976505;28;20039;-72
2023/07/15 05:34:36;;;;;;;2.08;0.60;;;20.80;99.90;;;;;;4980250;28;20034;-72
2023/07/15 05:37:02;;;;;;;2.38;0.60;;;20.80;99.90;;;;;;4976346;28;20058;-72
2023/07/15 05:39:28;;;;;;;2.97;0.50;;;20.90;99.90;;;;;;4977715;28;20038;-71
2023/07/15 05:41:53;;;;;;;1.15;0.60;;;21.00;99.90;;;;;;4977563;28;20129;-72
2023/07/15 05:44:19;;;;;;;1.55;0.55;;;21.10;99.90;;;;;;4977567;28;20039;-71
2023/07/15 05:46:44;;;;;;;3.85;0.77;;;21.10;99.90;;;;;;4978645;28;20046;-71
2023/07/15 05:49:10;;;;;;;0.82;0.40;;;21.10;99.90;;;;;;4976500;28;20043;-71
2023/07/15 05:51:36;;;;;;;0.70;0.50;;;21.20;99.90;;;;;;4978498;28;20376;-71
2023/07/15 05:54:02;;;;;;;1.27;0.30;;;21.20;99.90;;;;;;4979125;28;20042;-71
2023/07/15 05:56:28;;;;;;;4.18;0.77;;;21.20;99.90;;;;;;4983033;28;20027;-71
2023/07/15 05:58:54;;;;;;;2.42;0.50;;;21.30;99.90;;;;;;4983276;28;20093;-72
2023/07/15 06:01:20;;;;;;;1.55;0.40;;;21.40;99.90;;;;;;4981094;28;20451;-71
2023/07/15 06:03:45;;;;;;;1.25;0.40;;;21.40;99.90;;;;;;4981763;28;20484;-72
2023/07/15 06:06:12;;;;;;;5.07;0.60;;;21.50;99.90;;;;;;4980329;28;20046;-72
2023/07/15 06:08:38;;;;;;;4.03;1.00;;;21.60;99.90;;;;;;4980987;28;20034;-71
2023/07/15 06:11:04;;;;;;;4.13;0.80;;;21.80;99.90;;;;;;4983102;28;20084;-71
2023/07/15 06:13:30;;;;;;;0.90;0.32;;;22.10;99.90;;;;;;4979829;28;20034;-72
2023/07/15 06:15:55;;;;;;;2.42;0.40;;;22.50;99.90;;;;;;4982345;28;20030;-72
2023/07/15 06:18:21;;;;;;;1.95;0.40;;;22.60;99.90;;;;;;4982595;28;20038;-72
2023/07/15 06:20:47;;;;;;;1.27;0.70;;;22.80;99.90;;;;;;4981423;28;20404;-72
2023/07/15 06:23:13;;;;;;;1.15;0.30;;;22.90;99.90;;;;;;4979901;28;20039;-72
2023/07/15 06:25:39;;;;;;;1.40;0.28;;;23.00;99.90;;;;;;4985605;28;20045;-71
2023/07/15 06:28:05;;;;;;;0.85;0.35;;;23.00;99.90;;;;;;4979138;28;20034;-72
2023/07/15 06:30:31;;;;;;;1.98;0.20;;;23.00;99.90;;;;;;4983464;28;20034;-72
2023/07/15 06:32:57;;;;;;;1.15;0.40;;;23.20;99.90;;;;;;4984530;28;20023;-72
2023/07/15 06:35:23;;;;;;;1.40;0.40;;;23.30;99.90;;;;;;4986401;28;20097;-72
2023/07/15 06:37:50;;;;;;;1.30;0.30;;;23.30;99.90;;;;;;4984473;28;20041;-72
2023/07/15 06:40:17;;;;;;;1.08;0.30;;;23.40;99.90;;;;;;4983933;28;20054;-71
2023/07/15 06:42:43;;;;;;;1.60;0.40;;;23.50;99.90;;;;;;4986222;28;20084;-71
2023/07/15 06:45:09;;;;;;;3.10;0.40;;;23.60;99.90;;;;;;4983534;28;20101;-72
2023/07/15 06:47:35;;;;;;;0.77;0.17;;;23.70;99.90;;;;;;4985828;28;20476;-73
2023/07/15 06:50:01;;;;;;;0.88;0.43;;;23.90;99.90;;;;;;4984949;28;20037;-73
2023/07/15 06:52:27;;;;;;;0.43;0.05;;;24.20;99.90;;;;;;4981605;28;20133;-72
2023/07/15 06:54:52;;;;;;;0.20;0.10;;;24.60;99.90;;;;;;4987139;28;20097;-73
2023/07/15 06:57:18;;;;;;;0.40;0.15;;;25.20;99.90;;;;;;4985731;28;20037;-73
2023/07/15 06:59:44;;;;;;;3.85;0.10;;;25.70;99.90;;;;;;4986869;28;20558;-72
2023/07/15 07:02:09;;;;;;;0.40;0.20;;;25.90;99.90;;;;;;4983937;28;20057;-73
2023/07/15 07:04:35;;;;;;;0.20;0.05;;;26.00;99.90;;;;;;4987388;28;20089;-73
2023/07/15 07:07:01;;;;;;;0.88;0.20;;;25.80;99.90;;;;;;4983806;28;20435;-72
2023/07/15 07:09:26;;;;;;;2.08;0.20;;;25.50;99.90;;;;;;4984926;28;20022;-73
2023/07/15 07:11:52;;;;;;;3.20;0.55;;;25.50;99.90;;;;;;4986710;28;20045;-71
2023/07/15 07:14:18;;;;;;;0.45;0.10;;;25.60;99.90;;;;;;4986073;28;20030;-73
2023/07/15 07:16:44;;;;;;;0.70;0.22;;;25.70;99.90;;;;;;4982551;28;20038;-72
2023/07/15 07:19:09;;;;;;;0.50;0.30;;;25.60;99.90;;;;;;4986848;28;20049;-72
2023/07/15 07:21:35;;;;;;;0.98;0.30;;;25.20;99.90;;;;;;4986343;28;20394;-72
2023/07/15 07:24:01;;;;;;;0.43;0.20;;;24.70;99.90;;;;;;4982335;28;20049;-72
2023/07/15 07:26:26;;;;;;;1.05;0.10;;;24.40;99.90;;;;;;4980613;28;20042;-72
2023/07/15 07:28:52;;;;;;;1.55;0.28;;;24.20;99.90;;;;;;4984960;28;20034;-73
2023/07/15 07:31:18;;;;;;;0.95;0.30;;;24.00;99.90;;;;;;4984610;28;20154;-72
2023/07/15 07:33:44;;;;;;;2.58;0.10;;;24.00;99.90;;;;;;4984195;28;20030;-73
2023/07/15 07:36:10;;;;;;;0.45;0.13;;;24.10;99.90;;;;;;5201345;23;20029;-71
2023/07/15 07:38:36;;;;;;;2.10;0.20;;;24.20;99.90;;;;;;4994149;28;20244;-70
2023/07/15 07:41:06;;;;;;;1.70;0.30;;;24.40;99.90;;;;;;4998274;28;20034;-71
2023/07/15 07:43:36;;;;;;;0.47;0.28;;;24.50;99.90;;;;;;4995575;28;20669;-71
2023/07/15 07:46:04;;;;;;;0.10;0.10;;;24.40;99.90;;;;;;4992812;28;20042;-71
2023/07/15 07:48:29;;;;;;;0.47;0.13;;;24.20;99.90;;;;;;4995440;28;20557;-71
2023/07/15 07:50:56;;;;;;;1.40;0.20;;;24.20;99.90;;;;;;4996433;28;20026;-72
2023/07/15 07:53:22;;;;;;;2.30;0.30;;;24.40;99.90;;;;;;4994328;28;20026;-70
2023/07/15 07:55:49;;;;;;;3.00;0.20;;;24.50;99.90;;;;;;5001325;28;20052;-71
2023/07/15 07:58:14;;;;;;;0.57;0.10;;;24.40;99.90;;;;;;4999156;28;20064;-69
2023/07/15 08:00:40;;;;;;;0.80;0.40;;;24.50;99.90;;;;;;4991844;28;20042;-71
2023/07/15 08:03:06;;;;;;;0.52;0.10;;;24.30;99.90;;;;;;4997866;28;20034;-70
2023/07/15 08:05:31;;;;;;;0.47;0.30;;;24.40;99.90;;;;;;4998852;28;20054;-71
2023/07/15 08:07:57;;;;;;;1.80;0.25;;;24.50;99.90;;;;;;5006843;28;20372;-70
2023/07/15 08:10:23;;;;;;;4.20;0.10;;;24.50;99.90;;;;;;4992938;28;20399;-72
2023/07/15 08:12:48;;;;;;;1.90;0.30;;;24.50;99.90;;;;;;4998219;28;20033;-72
2023/07/15 08:15:14;;;;;;;0.68;0.10;;;24.30;99.90;;;;;;4996356;28;20030;-71
2023/07/15 08:17:39;;;;;;;0.25;0.10;;;24.30;99.90;;;;;;5001388;28;20059;-72
2023/07/15 08:20:08;;;;;;;1.15;0.20;;;24.60;99.90;;;;;;4997336;28;20040;-71
2023/07/15 08:22:33;;;;;;;1.48;0.47;;;25.10;99.90;;;;;;4996667;28;20512;-70
2023/07/15 08:24:59;;;;;;;4.15;0.30;;;25.50;99.90;;;;;;4999528;28;20105;-72
2023/07/15 08:27:24;;;;;;;0.55;0.20;;;25.80;99.90;;;;;;4999652;28;20522;-71
2023/07/15 08:29:50;;;;;;;0.98;0.15;;;26.10;99.90;;;;;;4996335;28;20080;-69
2023/07/15 08:32:16;;;;;;;0.90;0.17;;;26.40;99.90;;;;;;4997864;28;20056;-71
2023/07/15 08:34:57;;;;;;;2.10;0.40;;;26.50;99.50;;;;;;4998724;28;20038;-70
2023/07/15 08:37:23;;;;;;;0.70;0.20;;;26.60;99.60;;;;;;4997175;28;20499;-72
2023/07/15 08:39:48;;;;;;;0.90;0.30;;;26.60;99.70;;;;;;5002120;28;20041;-70
2023/07/15 08:42:15;;;;;;;0.95;0.10;;;26.50;99.70;;;;;;5005547;28;20042;-70
2023/07/15 08:44:41;;;;;;;1.95;0.30;;;26.50;99.70;;;;;;5005069;28;20051;-72
2023/07/15 08:47:07;;;;;;;0.55;0.22;;;26.40;99.60;;;;;;5009558;28;20064;-75
2023/07/15 08:49:37;;;;;;;0.82;0.20;;;26.40;99.40;;;;;;5002077;28;20029;-70
2023/07/15 08:52:04;;;;;;;0.80;0.20;;;26.60;98.80;;;;;;5003850;28;20060;-69
2023/07/15 08:54:32;;;;;;;1.58;0.25;;;26.50;98.50;;;;;;4998127;28;20059;-70
2023/07/15 08:56:57;;;;;;;0.98;0.10;;;26.70;98.40;;;;;;5003758;28;20388;-70
2023/07/15 08:59:23;;;;;;;0.98;0.20;;;26.80;98.30;;;;;;4997339;28;20041;-71
2023/07/15 09:01:49;;;;;;;1.85;0.25;;;26.80;98.60;;;;;;4987069;28;20029;-72
2023/07/15 09:04:14;;;;;;;1.10;0.20;;;26.80;98.10;;;;;;4998360;28;24205;-73
2023/07/15 09:06:41;;;;;;;2.28;0.20;;;26.80;98.20;;;;;;4999842;28;20042;-72
2023/07/15 09:09:07;;;;;;;0.30;0.20;;;26.70;98.10;;;;;;4997721;28;20033;-75
2023/07/15 09:11:41;;;;;;;0.98;0.40;;;26.70;98.30;;;;;;4995291;28;20041;-70
2023/07/15 09:14:16;;;;;;;3.38;0.47;;;26.60;98.60;;;;;;4997593;28;20177;-71
2023/07/15 09:16:42;;;;;;;1.80;0.35;;;26.70;98.80;;;;;;4998062;28;20038;-71
2023/07/15 09:19:07;;;;;;;0.40;0.13;;;26.80;98.50;;;;;;4997023;28;20034;-72
2023/07/15 09:21:33;;;;;;;2.15;0.65;;;26.90;98.90;;;;;;4998742;28;20517;-71
2023/07/15 09:24:02;;;;;;;1.05;0.45;;;26.90;99.00;;;;;;4995507;28;20038;-71
2023/07/15 09:26:29;;;;;;;2.73;0.30;;;26.60;99.40;;;;;;4998682;28;20105;-71
2023/07/15 09:28:55;;;;;;;1.23;0.35;;;26.40;99.40;;;;;;5000664;28;20568;-72
2023/07/15 09:31:26;;;;;;;0.77;0.30;;;26.40;99.90;;;;;;5007288;28;20036;-71
2023/07/15 09:34:03;;;;;;;0.68;0.30;;;26.40;99.90;;;;;;5000867;28;20034;-70
2023/07/15 09:36:30;;;;;;;0.77;0.32;;;26.30;99.90;;;;;;5003874;28;20030;-72
2023/07/15 09:39:02;;;;;;;2.85;0.30;;;26.40;99.60;;;;;;4997754;28;20041;-69
2023/07/15 09:41:28;;;;;;;1.75;0.40;;;26.30;99.00;;;;;;5019811;28;20034;-69
2023/07/15 09:43:53;;;;;;;1.45;0.30;;;26.30;99.20;;;;;;5012835;28;20521;-72
2023/07/15 09:46:21;;;;;;;6.30;0.70;;;26.00;99.90;;;;;;4997924;28;20034;-71
2023/07/15 09:48:48;;;;;;;1.27;0.38;;;25.90;99.90;;;;;;5001445;28;20030;-71
2023/07/15 09:51:16;;;;;;;0.40;0.20;;;26.00;99.90;;;;;;5001717;28;20030;-71
2023/07/15 09:54:01;;;;;;;0.65;0.40;;;26.10;99.90;;;;;;5004852;28;20034;-72
2023/07/15 09:56:34;;;;;;;3.28;0.80;;;26.10;99.90;;;;;;4998402;28;20113;-71
2023/07/15 09:59:15;;;;;;;1.88;0.60;;;26.10;99.90;;;;;;5005588;28;20033;-72
2023/07/15 10:01:45;;;;;;;1.67;0.50;;;26.10;99.90;;;;;;5003231;28;20038;-71
2023/07/15 10:04:10;;;;;;;;;;;26.20;99.90;;;;;;5000037;28;20100;-70
2023/07/15 10:06:37;;;;;;;4.32;0.50;;;26.40;99.90;;;;;;5002386;28;19921;-71
2023/07/15 10:09:04;;;;;;;1.90;0.70;;;26.60;99.90;;;;;;5003044;28;20064;-71
2023/07/15 10:11:30;;;;;;;2.47;0.38;;;26.70;99.90;;;;;;5001440;28;20069;-71
2023/07/15 10:13:57;;;;;;;1.95;0.63;;;26.60;99.90;;;;;;5002680;28;20034;-71
2023/07/15 10:16:23;;;;;;;1.25;0.77;;;26.70;99.90;;;;;;5001580;28;20630;-72
2023/07/15 10:18:48;;;;;;;2.88;0.50;;;26.60;99.80;;;;;;5004930;28;20101;-71
2023/07/15 10:21:15;;;;;;;0.73;0.40;;;26.70;99.60;;;;;;4999641;28;20045;-70
2023/07/15 10:23:40;;;;;;;2.25;0.60;;;26.70;99.90;;;;;;4998470;28;20103;-71
2023/07/15 10:26:08;;;;;;;2.47;0.60;;;26.70;99.90;;;;;;5001995;28;20117;-71
2023/07/15 10:28:41;;;;;;;0.73;0.60;;;26.90;99.90;;;;;;5000088;28;20047;-71
2023/07/15 10:31:14;;;;;;;4.07;0.60;;;27.00;99.90;;;;;;5004870;28;20036;-71
2023/07/15 10:34:03;;;;;;;1.15;0.45;;;27.10;99.10;;;;;;5025740;28;20049;-71
2023/07/15 10:36:37;;;;;;;1.35;0.30;;;27.10;99.90;;;;;;5010337;28;20026;-72
2023/07/15 10:39:20;;;;;;;1.23;0.47;;;27.10;99.20;;;;;;5002428;28;20058;-71
2023/07/15 10:41:46;;;;;;;5.07;0.52;;;27.20;99.60;;;;;;4998862;28;20046;-71
2023/07/15 10:44:23;;;;;;;3.35;0.40;;;27.20;99.50;;;;;;4993311;28;20034;-74
2023/07/15 10:47:00;;;;;;;4.82;0.30;;;27.30;99.30;;;;;;4997259;28;20155;-72
2023/07/15 10:49:26;;;;;;;5.22;0.75;;;27.20;99.50;;;;;;4994302;28;20034;-72
2023/07/15 10:51:54;;;;;;;7.43;1.15;;;27.30;99.90;;;;;;4994966;28;20133;-72
2023/07/15 10:54:26;;;;;;;2.05;0.55;;;27.20;99.40;;;;;;4994163;28;20069;-71
2023/07/15 10:56:53;;;;;;;2.42;0.55;;;27.20;99.90;;;;;;4996907;28;20057;-70
2023/07/15 10:59:18;;;;;;;2.65;0.65;;;27.10;98.90;;;;;;4994649;28;20041;-72
2023/07/15 11:01:44;;;;;;;3.05;0.57;;;27.10;98.70;;;;;;4999601;28;20117;-72
2023/07/15 11:04:10;;;;;;;3.97;0.43;;;27.10;99.30;;;;;;4998166;28;20227;-72
2023/07/15 11:06:36;;;;;;;1.23;0.50;;;27.10;99.30;;;;;;4996558;28;20074;-72
2023/07/15 11:09:15;;;;;;;0.98;0.40;;;27.10;99.80;;;;;;4996155;28;20054;-70
2023/07/15 11:11:41;;;;;;;5.63;0.85;;;27.20;99.10;;;;;;4999583;28;20045;-70
2023/07/15 11:14:37;;;;;;;2.58;0.80;;;27.30;99.00;;;;;;4994811;28;20042;-71
2023/07/15 11:17:04;;;;;;;7.10;1.02;;;27.10;98.90;;;;;;4993749;28;20041;-71
2023/07/15 11:19:31;;;;;;;1.75;0.80;;;26.90;99.10;;;;;;4997552;28;20031;-71
2023/07/15 11:21:58;;;;;;;1.17;0.30;;;26.80;99.70;;;;;;5001386;28;20117;-71
2023/07/15 11:24:25;;;;;;;1.98;0.40;;;26.90;99.10;;;;;;5005965;28;20583;-71
2023/07/15 11:26:51;;;;;;;5.70;0.73;;;27.00;99.00;;;;;;5013960;28;20038;-71
2023/07/15 11:29:20;;;;;;;5.80;0.50;;;27.20;99.20;;;;;;4999769;28;20504;-72
2023/07/15 11:31:48;;;;;;;1.70;0.60;;;27.20;99.10;;;;;;4999318;28;20026;-71
2023/07/15 11:34:18;;;;;;;4.18;0.60;;;27.20;99.20;;;;;;4996519;28;20499;-71
2023/07/15 11:36:44;;;;;;;1.52;0.52;;;27.20;99.30;;;;;;4992357;28;20092;-71
2023/07/15 11:39:11;;;;;;;8.38;0.90;;;27.30;99.00;;;;;;5000340;28;20049;-72
2023/07/15 11:41:37;;;;;;;3.00;0.60;;;27.40;99.20;;;;;;4994678;28;20039;-71
2023/07/15 11:44:08;;;;;;;2.58;0.40;;;27.50;99.40;;;;;;4996444;28;20373;-72
2023/07/15 11:46:34;;;;;;;4.78;0.65;;;27.70;98.90;;;;;;4997449;28;20046;-72
2023/07/15 11:49:00;;;;;;;1.45;0.70;;;27.70;98.30;;;;;;4999188;28;20426;-72
2023/07/15 11:51:26;;;;;;;3.67;0.57;;;27.80;98.70;;;;;;4992834;28;20030;-72
2023/07/15 11:53:55;;;;;;;1.63;0.45;;;27.80;97.90;;;;;;4996865;28;20396;-71
2023/07/15 11:56:45;;;;;;;2.72;0.77;;;27.60;97.90;;;;;;4999046;28;20089;-70
2023/07/15 11:59:30;;;;;;;1.50;0.45;;;27.60;98.00;;;;;;4989834;28;20049;-71
2023/07/15 12:01:57;;;;;;;0.95;0.60;;;27.50;98.80;;;;;;4995734;28;20042;-75
2023/07/15 12:04:27;;;;;;;5.15;0.90;;;27.30;99.30;;;;;;4997903;28;20548;-73
2023/07/15 12:06:53;;;;;;;1.63;0.30;;;27.40;98.50;;;;;;4995449;28;20050;-71
2023/07/15 12:09:21;;;;;;;3.15;0.47;;;27.40;98.00;;;;;;4993231;28;20037;-72
2023/07/15 12:11:47;;;;;;;2.05;0.88;;;27.40;98.40;;;;;;4999080;28;20034;-71
2023/07/15 12:14:14;;;;;;;2.17;0.60;;;27.40;98.50;;;;;;4994387;28;20052;-70
2023/07/15 12:16:40;;;;;;;2.72;0.60;;;27.50;98.80;;;;;;5008596;28;20031;-71
2023/07/15 12:19:10;;;;;;;2.25;0.50;;;27.40;97.90;;;;;;5001937;28;20503;-71
2023/07/15 12:21:36;;;;;;;0.70;0.50;;;27.30;98.20;;;;;;4997780;28;20156;-71
2023/07/15 12:24:02;;;;;;;0.70;0.50;;;27.40;98.20;;;;;;4993793;28;20121;-71
2023/07/15 12:26:28;;;;;;;1.30;0.50;;;27.30;98.10;;;;;;4995006;28;20652;-71
2023/07/15 12:28:54;;;;;;;2.40;0.73;;;27.20;98.10;;;;;;4997576;28;20034;-72
2023/07/15 12:31:20;;;;;;;3.33;0.82;;;27.10;97.70;;;;;;4993315;28;20087;-71
2023/07/15 12:33:46;;;;;;;2.00;0.93;;;27.10;98.00;;;;;;4993524;28;20396;-71
2023/07/15 12:36:14;;;;;;;1.00;0.43;;;27.10;98.10;;;;;;4996279;28;20026;-72
2023/07/15 12:38:40;;;;;;;2.38;0.60;;;27.30;97.80;;;;;;4996916;28;20080;-72
2023/07/15 12:41:07;;;;;;;1.13;0.30;;;27.40;97.70;;;;;;4996264;28;20030;-72
2023/07/15 12:43:33;;;;;;;1.23;0.60;;;27.50;97.90;;;;;;4991788;28;20044;-71
2023/07/15 12:45:59;;;;;;;1.60;0.47;;;27.40;97.50;;;;;;4995912;28;20129;-73
2023/07/15 12:48:25;;;;;;;3.38;0.60;;;27.50;98.40;;;;;;4993369;28;20085;-72
2023/07/15 12:50:51;;;;;;;2.22;0.43;;;27.50;97.90;;;;;;4992817;28;20038;-72
2023/07/15 12:53:17;;;;;;;1.15;0.30;;;27.40;98.00;;;;;;4992923;28;20061;-71
2023/07/15 12:55:43;;;;;;;1.63;0.60;;;27.30;98.60;;;;;;4992218;28;20034;-71
2023/07/15 12:58:10;;;;;;;2.63;0.68;;;27.10;98.70;;;;;;4991822;28;20062;-72